sensor_id;sensor_type;location;lat;lon;timestamp;P1;durP1;ratioP1;P2;durP2;ratioP2
70297;SDS011;57702;44.420;20.298;2022-07-06T00:01:39;27.73;;;19.42;;
70297;SDS011;57702;44.420;20.298;2022-07-06T00:04:05;30.13;;;22.15;;
70297;SDS011;57702;44.420;20.298;2022-07-06T00:06:31;39.80;;;25.63;;
70297;SDS011;57702;44.420;20.298;2022-07-06T00:08:58;28.60;;;23.20;;
70297;SDS011;57702;44.420;20.298;2022-07-06T00:11:24;29.45;;;21.40;;
70297;SDS011;57702;44.420;20.298;2022-07-06T00:13:50;25.52;;;20.35;;
70297;SDS011;57702;44.420;20.298;2022-07-06T00:16:16;23.92;;;20.67;;
70297;SDS011;57702;44.420;20.298;2022-07-06T00:18:42;42.83;;;26.77;;
70297;SDS011;57702;44.420;20.298;2022-07-06T00:21:08;26.40;;;19.48;;
70297;SDS011;57702;44.420;20.298;2022-07-06T00:23:35;39.92;;;26.48;;
70297;SDS011;57702;44.420;20.298;2022-07-06T00:26:01;42.22;;;27.13;;
70297;SDS011;57702;44.420;20.298;2022-07-06T00:28:27;39.40;;;27.15;;
70297;SDS011;57702;44.420;20.298;2022-07-06T00:30:53;44.50;;;26.20;;
70297;SDS011;57702;44.420;20.298;2022-07-06T00:33:19;25.10;;;19.65;;
70297;SDS011;57702;44.420;20.298;2022-07-06T00:35:46;29.27;;;22.02;;
70297;SDS011;57702;44.420;20.298;2022-07-06T00:38:12;27.83;;;20.33;;
70297;SDS011;57702;44.420;20.298;2022-07-06T00:40:38;34.65;;;18.65;;
70297;SDS011;57702;44.420;20.298;2022-07-06T00:43:04;26.42;;;18.85;;
70297;SDS011;57702;44.420;20.298;2022-07-06T00:45:30;23.02;;;20.27;;
70297;SDS011;57702;44.420;20.298;2022-07-06T00:47:56;30.83;;;20.77;;
70297;SDS011;57702;44.420;20.298;2022-07-06T00:50:22;23.88;;;18.25;;
70297;SDS011;57702;44.420;20.298;2022-07-06T00:52:53;21.92;;;17.88;;
70297;SDS011;57702;44.420;20.298;2022-07-06T00:55:20;20.58;;;16.58;;
70297;SDS011;57702;44.420;20.298;2022-07-06T00:57:47;24.65;;;19.35;;
70297;SDS011;57702;44.420;20.298;2022-07-06T01:00:14;24.73;;;18.35;;
70297;SDS011;57702;44.420;20.298;2022-07-06T01:02:41;28.90;;;19.17;;
70297;SDS011;57702;44.420;20.298;2022-07-06T01:05:08;24.50;;;18.23;;
70297;SDS011;57702;44.420;20.298;2022-07-06T01:07:35;20.52;;;18.35;;
70297;SDS011;57702;44.420;20.298;2022-07-06T01:10:02;26.88;;;17.42;;
70297;SDS011;57702;44.420;20.298;2022-07-06T01:12:29;19.42;;;16.15;;
70297;SDS011;57702;44.420;20.298;2022-07-06T01:14:55;24.20;;;16.60;;
70297;SDS011;57702;44.420;20.298;2022-07-06T01:17:21;20.00;;;17.80;;
70297;SDS011;57702;44.420;20.298;2022-07-06T01:19:47;22.33;;;17.38;;
70297;SDS011;57702;44.420;20.298;2022-07-06T01:22:13;23.50;;;17.73;;
70297;SDS011;57702;44.420;20.298;2022-07-06T01:24:40;21.90;;;14.80;;
70297;SDS011;57702;44.420;20.298;2022-07-06T01:27:06;24.73;;;15.70;;
70297;SDS011;57702;44.420;20.298;2022-07-06T01:29:33;32.38;;;20.50;;
70297;SDS011;57702;44.420;20.298;2022-07-06T01:31:59;25.25;;;18.42;;
70297;SDS011;57702;44.420;20.298;2022-07-06T01:34:26;35.88;;;19.67;;
70297;SDS011;57702;44.420;20.298;2022-07-06T01:36:52;36.67;;;21.35;;
70297;SDS011;57702;44.420;20.298;2022-07-06T01:39:19;30.90;;;18.98;;
70297;SDS011;57702;44.420;20.298;2022-07-06T01:41:45;25.38;;;20.08;;
70297;SDS011;57702;44.420;20.298;2022-07-06T01:44:12;29.67;;;17.45;;
70297;SDS011;57702;44.420;20.298;2022-07-06T01:46:38;30.10;;;17.33;;
70297;SDS011;57702;44.420;20.298;2022-07-06T01:49:04;19.15;;;15.25;;
70297;SDS011;57702;44.420;20.298;2022-07-06T01:51:31;27.10;;;16.05;;
70297;SDS011;57702;44.420;20.298;2022-07-06T01:53:57;25.55;;;17.83;;
70297;SDS011;57702;44.420;20.298;2022-07-06T01:56:24;28.60;;;15.70;;
70297;SDS011;57702;44.420;20.298;2022-07-06T01:58:50;17.73;;;15.20;;
70297;SDS011;57702;44.420;20.298;2022-07-06T02:01:17;28.52;;;16.55;;
70297;SDS011;57702;44.420;20.298;2022-07-06T02:03:44;18.52;;;15.23;;
70297;SDS011;57702;44.420;20.298;2022-07-06T02:06:10;20.33;;;15.13;;
70297;SDS011;57702;44.420;20.298;2022-07-06T02:08:39;23.98;;;15.90;;
70297;SDS011;57702;44.420;20.298;2022-07-06T02:11:06;18.13;;;13.20;;
70297;SDS011;57702;44.420;20.298;2022-07-06T02:13:33;20.80;;;13.55;;
70297;SDS011;57702;44.420;20.298;2022-07-06T02:15:59;20.60;;;15.57;;
70297;SDS011;57702;44.420;20.298;2022-07-06T02:18:25;18.95;;;13.40;;
70297;SDS011;57702;44.420;20.298;2022-07-06T02:20:51;15.60;;;13.30;;
70297;SDS011;57702;44.420;20.298;2022-07-06T02:23:17;14.18;;;12.73;;
70297;SDS011;57702;44.420;20.298;2022-07-06T02:25:44;15.68;;;11.55;;
70297;SDS011;57702;44.420;20.298;2022-07-06T02:28:10;25.48;;;14.07;;
70297;SDS011;57702;44.420;20.298;2022-07-06T02:30:36;19.83;;;13.00;;
70297;SDS011;57702;44.420;20.298;2022-07-06T02:33:02;19.67;;;12.43;;
70297;SDS011;57702;44.420;20.298;2022-07-06T02:35:28;15.23;;;12.18;;
70297;SDS011;57702;44.420;20.298;2022-07-06T02:37:54;16.40;;;11.30;;
70297;SDS011;57702;44.420;20.298;2022-07-06T02:40:21;14.15;;;10.35;;
70297;SDS011;57702;44.420;20.298;2022-07-06T02:42:47;16.88;;;9.93;;
70297;SDS011;57702;44.420;20.298;2022-07-06T02:45:13;11.52;;;9.93;;
70297;SDS011;57702;44.420;20.298;2022-07-06T02:47:39;16.58;;;10.88;;
70297;SDS011;57702;44.420;20.298;2022-07-06T02:50:05;11.00;;;8.35;;
70297;SDS011;57702;44.420;20.298;2022-07-06T02:52:32;17.48;;;10.10;;
70297;SDS011;57702;44.420;20.298;2022-07-06T02:54:58;14.05;;;9.32;;
70297;SDS011;57702;44.420;20.298;2022-07-06T02:57:24;11.60;;;9.65;;
70297;SDS011;57702;44.420;20.298;2022-07-06T02:59:50;14.48;;;8.93;;
70297;SDS011;57702;44.420;20.298;2022-07-06T03:02:16;17.08;;;10.90;;
70297;SDS011;57702;44.420;20.298;2022-07-06T03:04:43;16.38;;;9.48;;
70297;SDS011;57702;44.420;20.298;2022-07-06T03:07:09;17.65;;;9.32;;
70297;SDS011;57702;44.420;20.298;2022-07-06T03:09:35;9.43;;;8.50;;
70297;SDS011;57702;44.420;20.298;2022-07-06T03:12:01;12.20;;;7.78;;
70297;SDS011;57702;44.420;20.298;2022-07-06T03:14:27;9.98;;;8.00;;
70297;SDS011;57702;44.420;20.298;2022-07-06T03:16:53;14.70;;;8.65;;
70297;SDS011;57702;44.420;20.298;2022-07-06T03:19:20;13.35;;;8.57;;
70297;SDS011;57702;44.420;20.298;2022-07-06T03:21:46;14.43;;;8.57;;
70297;SDS011;57702;44.420;20.298;2022-07-06T03:24:12;11.55;;;8.13;;
70297;SDS011;57702;44.420;20.298;2022-07-06T03:26:38;8.93;;;7.82;;
70297;SDS011;57702;44.420;20.298;2022-07-06T03:29:04;12.32;;;8.05;;
70297;SDS011;57702;44.420;20.298;2022-07-06T03:31:30;14.50;;;7.93;;
70297;SDS011;57702;44.420;20.298;2022-07-06T03:33:57;13.32;;;8.52;;
70297;SDS011;57702;44.420;20.298;2022-07-06T03:36:23;11.10;;;7.85;;
70297;SDS011;57702;44.420;20.298;2022-07-06T03:38:49;12.10;;;8.48;;
70297;SDS011;57702;44.420;20.298;2022-07-06T03:41:15;11.93;;;6.72;;
70297;SDS011;57702;44.420;20.298;2022-07-06T03:43:41;10.00;;;7.50;;
70297;SDS011;57702;44.420;20.298;2022-07-06T03:46:08;12.02;;;7.82;;
70297;SDS011;57702;44.420;20.298;2022-07-06T03:48:34;12.48;;;7.57;;
70297;SDS011;57702;44.420;20.298;2022-07-06T03:51:00;12.40;;;6.70;;
70297;SDS011;57702;44.420;20.298;2022-07-06T03:53:26;7.40;;;5.88;;
70297;SDS011;57702;44.420;20.298;2022-07-06T03:55:52;7.95;;;6.82;;
70297;SDS011;57702;44.420;20.298;2022-07-06T03:58:37;8.80;;;6.40;;
70297;SDS011;57702;44.420;20.298;2022-07-06T04:01:03;7.90;;;6.25;;
70297;SDS011;57702;44.420;20.298;2022-07-06T04:03:29;9.68;;;6.13;;
70297;SDS011;57702;44.420;20.298;2022-07-06T04:05:55;12.38;;;6.10;;
70297;SDS011;57702;44.420;20.298;2022-07-06T04:08:21;8.07;;;5.95;;
70297;SDS011;57702;44.420;20.298;2022-07-06T04:10:47;7.22;;;5.53;;
70297;SDS011;57702;44.420;20.298;2022-07-06T04:13:13;6.63;;;5.00;;
70297;SDS011;57702;44.420;20.298;2022-07-06T04:15:40;6.32;;;5.55;;
70297;SDS011;57702;44.420;20.298;2022-07-06T04:18:06;6.88;;;5.55;;
70297;SDS011;57702;44.420;20.298;2022-07-06T04:20:32;9.88;;;5.32;;
70297;SDS011;57702;44.420;20.298;2022-07-06T04:22:58;7.72;;;5.57;;
70297;SDS011;57702;44.420;20.298;2022-07-06T04:25:24;7.65;;;6.30;;
70297;SDS011;57702;44.420;20.298;2022-07-06T04:27:50;7.95;;;5.70;;
70297;SDS011;57702;44.420;20.298;2022-07-06T04:30:16;7.22;;;6.15;;
70297;SDS011;57702;44.420;20.298;2022-07-06T04:32:43;13.45;;;6.55;;
70297;SDS011;57702;44.420;20.298;2022-07-06T04:35:09;9.90;;;5.95;;
70297;SDS011;57702;44.420;20.298;2022-07-06T04:37:35;8.57;;;5.82;;
70297;SDS011;57702;44.420;20.298;2022-07-06T04:40:02;12.82;;;7.07;;
70297;SDS011;57702;44.420;20.298;2022-07-06T04:42:28;9.65;;;6.63;;
70297;SDS011;57702;44.420;20.298;2022-07-06T04:44:55;8.30;;;5.57;;
70297;SDS011;57702;44.420;20.298;2022-07-06T04:47:21;9.75;;;6.85;;
70297;SDS011;57702;44.420;20.298;2022-07-06T04:49:47;6.45;;;5.85;;
70297;SDS011;57702;44.420;20.298;2022-07-06T04:52:13;8.50;;;5.60;;
70297;SDS011;57702;44.420;20.298;2022-07-06T04:54:39;10.70;;;5.97;;
70297;SDS011;57702;44.420;20.298;2022-07-06T04:57:05;7.28;;;6.07;;
70297;SDS011;57702;44.420;20.298;2022-07-06T04:59:32;6.28;;;5.68;;
70297;SDS011;57702;44.420;20.298;2022-07-06T05:01:58;6.60;;;5.47;;
70297;SDS011;57702;44.420;20.298;2022-07-06T05:04:24;9.98;;;5.85;;
70297;SDS011;57702;44.420;20.298;2022-07-06T05:06:50;7.05;;;5.28;;
70297;SDS011;57702;44.420;20.298;2022-07-06T05:09:16;7.00;;;5.57;;
70297;SDS011;57702;44.420;20.298;2022-07-06T05:11:42;6.38;;;4.88;;
70297;SDS011;57702;44.420;20.298;2022-07-06T05:14:09;6.88;;;4.75;;
70297;SDS011;57702;44.420;20.298;2022-07-06T05:16:36;10.55;;;4.97;;
70297;SDS011;57702;44.420;20.298;2022-07-06T05:19:02;6.68;;;4.78;;
70297;SDS011;57702;44.420;20.298;2022-07-06T05:21:28;5.03;;;4.45;;
70297;SDS011;57702;44.420;20.298;2022-07-06T05:23:54;5.88;;;4.05;;
70297;SDS011;57702;44.420;20.298;2022-07-06T05:26:20;8.60;;;4.82;;
70297;SDS011;57702;44.420;20.298;2022-07-06T05:28:46;6.93;;;5.05;;
70297;SDS011;57702;44.420;20.298;2022-07-06T05:31:12;5.55;;;5.03;;
70297;SDS011;57702;44.420;20.298;2022-07-06T05:33:39;10.25;;;4.70;;
70297;SDS011;57702;44.420;20.298;2022-07-06T05:36:05;6.22;;;4.40;;
70297;SDS011;57702;44.420;20.298;2022-07-06T05:38:32;6.05;;;4.30;;
70297;SDS011;57702;44.420;20.298;2022-07-06T05:40:58;9.70;;;4.63;;
70297;SDS011;57702;44.420;20.298;2022-07-06T05:43:24;10.20;;;4.10;;
70297;SDS011;57702;44.420;20.298;2022-07-06T05:45:50;8.35;;;4.65;;
70297;SDS011;57702;44.420;20.298;2022-07-06T05:48:16;4.80;;;4.18;;
70297;SDS011;57702;44.420;20.298;2022-07-06T05:51:01;7.10;;;3.60;;
70297;SDS011;57702;44.420;20.298;2022-07-06T05:53:27;8.63;;;3.80;;
70297;SDS011;57702;44.420;20.298;2022-07-06T05:55:53;3.75;;;3.40;;
70297;SDS011;57702;44.420;20.298;2022-07-06T05:58:19;7.25;;;3.45;;
70297;SDS011;57702;44.420;20.298;2022-07-06T06:00:46;7.13;;;3.40;;
70297;SDS011;57702;44.420;20.298;2022-07-06T06:03:12;3.83;;;3.53;;
70297;SDS011;57702;44.420;20.298;2022-07-06T06:05:38;5.05;;;3.30;;
70297;SDS011;57702;44.420;20.298;2022-07-06T06:08:04;4.60;;;3.47;;
70297;SDS011;57702;44.420;20.298;2022-07-06T06:10:30;5.10;;;3.17;;
70297;SDS011;57702;44.420;20.298;2022-07-06T06:12:57;12.75;;;4.07;;
70297;SDS011;57702;44.420;20.298;2022-07-06T06:15:23;4.18;;;2.75;;
70297;SDS011;57702;44.420;20.298;2022-07-06T06:17:49;5.90;;;3.25;;
70297;SDS011;57702;44.420;20.298;2022-07-06T06:20:15;5.95;;;2.90;;
70297;SDS011;57702;44.420;20.298;2022-07-06T06:22:49;2.75;;;2.50;;
70297;SDS011;57702;44.420;20.298;2022-07-06T06:25:15;3.92;;;2.85;;
70297;SDS011;57702;44.420;20.298;2022-07-06T06:27:42;3.28;;;2.75;;
70297;SDS011;57702;44.420;20.298;2022-07-06T06:30:08;11.45;;;2.92;;
70297;SDS011;57702;44.420;20.298;2022-07-06T06:32:34;5.97;;;2.60;;
70297;SDS011;57702;44.420;20.298;2022-07-06T06:35:01;9.27;;;2.50;;
70297;SDS011;57702;44.420;20.298;2022-07-06T06:37:27;3.08;;;2.28;;
70297;SDS011;57702;44.420;20.298;2022-07-06T06:39:53;4.57;;;2.47;;
70297;SDS011;57702;44.420;20.298;2022-07-06T06:42:19;7.00;;;2.88;;
70297;SDS011;57702;44.420;20.298;2022-07-06T06:44:45;3.90;;;2.47;;
70297;SDS011;57702;44.420;20.298;2022-07-06T06:47:11;4.47;;;2.20;;
70297;SDS011;57702;44.420;20.298;2022-07-06T06:49:37;8.52;;;2.35;;
70297;SDS011;57702;44.420;20.298;2022-07-06T06:52:03;3.67;;;2.08;;
70297;SDS011;57702;44.420;20.298;2022-07-06T06:54:29;4.50;;;2.00;;
70297;SDS011;57702;44.420;20.298;2022-07-06T06:56:55;5.75;;;1.98;;
70297;SDS011;57702;44.420;20.298;2022-07-06T06:59:22;1.90;;;1.80;;
70297;SDS011;57702;44.420;20.298;2022-07-06T07:01:48;1.90;;;1.80;;
70297;SDS011;57702;44.420;20.298;2022-07-06T07:04:14;2.78;;;2.13;;
70297;SDS011;57702;44.420;20.298;2022-07-06T07:06:40;2.92;;;2.40;;
70297;SDS011;57702;44.420;20.298;2022-07-06T07:09:06;2.85;;;1.95;;
70297;SDS011;57702;44.420;20.298;2022-07-06T07:11:33;1.98;;;1.80;;
70297;SDS011;57702;44.420;20.298;2022-07-06T07:14:00;3.90;;;2.08;;
70297;SDS011;57702;44.420;20.298;2022-07-06T07:16:26;3.58;;;1.67;;
70297;SDS011;57702;44.420;20.298;2022-07-06T07:18:52;8.20;;;1.80;;
70297;SDS011;57702;44.420;20.298;2022-07-06T07:21:18;2.08;;;1.73;;
70297;SDS011;57702;44.420;20.298;2022-07-06T07:23:45;4.43;;;1.70;;
70297;SDS011;57702;44.420;20.298;2022-07-06T07:26:11;5.32;;;1.75;;
70297;SDS011;57702;44.420;20.298;2022-07-06T07:28:37;2.38;;;1.55;;
70297;SDS011;57702;44.420;20.298;2022-07-06T07:31:04;4.90;;;1.60;;
70297;SDS011;57702;44.420;20.298;2022-07-06T07:33:30;1.77;;;1.52;;
70297;SDS011;57702;44.420;20.298;2022-07-06T07:35:56;2.85;;;1.35;;
70297;SDS011;57702;44.420;20.298;2022-07-06T07:38:22;1.77;;;1.40;;
70297;SDS011;57702;44.420;20.298;2022-07-06T07:40:48;4.82;;;1.30;;
70297;SDS011;57702;44.420;20.298;2022-07-06T07:43:14;2.78;;;1.20;;
70297;SDS011;57702;44.420;20.298;2022-07-06T07:45:40;3.22;;;1.13;;
70297;SDS011;57702;44.420;20.298;2022-07-06T07:48:06;2.05;;;1.33;;
70297;SDS011;57702;44.420;20.298;2022-07-06T07:50:33;2.30;;;1.27;;
70297;SDS011;57702;44.420;20.298;2022-07-06T07:53:00;3.50;;;1.50;;
70297;SDS011;57702;44.420;20.298;2022-07-06T07:55:26;6.53;;;1.27;;
70297;SDS011;57702;44.420;20.298;2022-07-06T07:57:52;4.18;;;1.30;;
70297;SDS011;57702;44.420;20.298;2022-07-06T08:00:18;5.30;;;1.20;;
70297;SDS011;57702;44.420;20.298;2022-07-06T08:02:46;1.20;;;1.00;;
70297;SDS011;57702;44.420;20.298;2022-07-06T08:05:13;0.98;;;0.98;;
70297;SDS011;57702;44.420;20.298;2022-07-06T08:07:41;1.17;;;1.08;;
70297;SDS011;57702;44.420;20.298;2022-07-06T08:10:07;4.03;;;1.50;;
70297;SDS011;57702;44.420;20.298;2022-07-06T08:12:34;4.88;;;1.83;;
70297;SDS011;57702;44.420;20.298;2022-07-06T08:15:01;1.98;;;1.15;;
70297;SDS011;57702;44.420;20.298;2022-07-06T08:17:27;4.20;;;1.35;;
70297;SDS011;57702;44.420;20.298;2022-07-06T08:19:53;1.77;;;1.20;;
70297;SDS011;57702;44.420;20.298;2022-07-06T08:22:19;4.82;;;1.23;;
70297;SDS011;57702;44.420;20.298;2022-07-06T08:24:45;4.28;;;1.20;;
70297;SDS011;57702;44.420;20.298;2022-07-06T08:27:11;4.70;;;1.65;;
70297;SDS011;57702;44.420;20.298;2022-07-06T08:29:38;1.20;;;1.10;;
70297;SDS011;57702;44.420;20.298;2022-07-06T08:32:04;2.47;;;1.00;;
70297;SDS011;57702;44.420;20.298;2022-07-06T08:34:30;1.10;;;1.10;;
70297;SDS011;57702;44.420;20.298;2022-07-06T08:36:56;4.07;;;1.40;;
70297;SDS011;57702;44.420;20.298;2022-07-06T08:39:22;4.03;;;1.30;;
70297;SDS011;57702;44.420;20.298;2022-07-06T08:41:48;5.28;;;1.38;;
70297;SDS011;57702;44.420;20.298;2022-07-06T08:44:15;2.08;;;1.40;;
70297;SDS011;57702;44.420;20.298;2022-07-06T08:46:41;2.53;;;0.88;;
70297;SDS011;57702;44.420;20.298;2022-07-06T08:49:08;1.15;;;1.00;;
70297;SDS011;57702;44.420;20.298;2022-07-06T08:51:35;1.58;;;1.48;;
70297;SDS011;57702;44.420;20.298;2022-07-06T08:54:04;4.63;;;1.70;;
70297;SDS011;57702;44.420;20.298;2022-07-06T08:56:31;5.50;;;1.58;;
70297;SDS011;57702;44.420;20.298;2022-07-06T08:58:57;2.33;;;1.20;;
70297;SDS011;57702;44.420;20.298;2022-07-06T09:01:23;2.03;;;0.93;;
70297;SDS011;57702;44.420;20.298;2022-07-06T09:03:50;11.10;;;1.23;;
70297;SDS011;57702;44.420;20.298;2022-07-06T09:06:16;0.80;;;0.80;;
70297;SDS011;57702;44.420;20.298;2022-07-06T09:08:45;2.17;;;1.23;;
70297;SDS011;57702;44.420;20.298;2022-07-06T09:11:12;5.03;;;1.05;;
70297;SDS011;57702;44.420;20.298;2022-07-06T09:13:38;7.75;;;1.40;;
70297;SDS011;57702;44.420;20.298;2022-07-06T09:16:11;2.67;;;1.25;;
70297;SDS011;57702;44.420;20.298;2022-07-06T09:18:38;9.43;;;1.48;;
70297;SDS011;57702;44.420;20.298;2022-07-06T09:21:05;2.10;;;1.48;;
70297;SDS011;57702;44.420;20.298;2022-07-06T09:23:31;3.95;;;2.00;;
70297;SDS011;57702;44.420;20.298;2022-07-06T09:25:59;4.50;;;1.73;;
70297;SDS011;57702;44.420;20.298;2022-07-06T09:28:43;3.90;;;1.40;;
70297;SDS011;57702;44.420;20.298;2022-07-06T09:31:09;3.97;;;1.33;;
70297;SDS011;57702;44.420;20.298;2022-07-06T09:33:35;8.80;;;2.15;;
70297;SDS011;57702;44.420;20.298;2022-07-06T09:36:02;2.08;;;1.80;;
70297;SDS011;57702;44.420;20.298;2022-07-06T09:38:28;5.00;;;1.73;;
70297;SDS011;57702;44.420;20.298;2022-07-06T09:40:54;6.43;;;1.88;;
70297;SDS011;57702;44.420;20.298;2022-07-06T09:43:21;3.03;;;1.13;;
70297;SDS011;57702;44.420;20.298;2022-07-06T09:45:48;2.30;;;1.00;;
70297;SDS011;57702;44.420;20.298;2022-07-06T09:48:24;7.30;;;1.00;;
70297;SDS011;57702;44.420;20.298;2022-07-06T09:53:18;1.27;;;0.75;;
70297;SDS011;57702;44.420;20.298;2022-07-06T09:55:48;1.10;;;1.10;;
70297;SDS011;57702;44.420;20.298;2022-07-06T09:58:14;5.38;;;1.30;;
70297;SDS011;57702;44.420;20.298;2022-07-06T10:00:44;5.57;;;1.63;;
70297;SDS011;57702;44.420;20.298;2022-07-06T10:03:11;11.95;;;2.75;;
70297;SDS011;57702;44.420;20.298;2022-07-06T10:05:38;3.70;;;1.48;;
70297;SDS011;57702;44.420;20.298;2022-07-06T10:08:05;3.05;;;1.30;;
70297;SDS011;57702;44.420;20.298;2022-07-06T10:10:34;4.63;;;1.20;;
70297;SDS011;57702;44.420;20.298;2022-07-06T10:13:01;5.95;;;1.88;;
70297;SDS011;57702;44.420;20.298;2022-07-06T10:15:29;14.27;;;1.83;;
70297;SDS011;57702;44.420;20.298;2022-07-06T10:17:58;1.27;;;1.02;;
70297;SDS011;57702;44.420;20.298;2022-07-06T10:20:25;1.63;;;1.10;;
70297;SDS011;57702;44.420;20.298;2022-07-06T10:22:53;3.70;;;1.70;;
70297;SDS011;57702;44.420;20.298;2022-07-06T10:25:20;4.75;;;1.50;;
70297;SDS011;57702;44.420;20.298;2022-07-06T10:27:47;4.97;;;1.10;;
70297;SDS011;57702;44.420;20.298;2022-07-06T10:30:16;16.85;;;2.80;;
70297;SDS011;57702;44.420;20.298;2022-07-06T10:32:43;3.75;;;1.35;;
70297;SDS011;57702;44.420;20.298;2022-07-06T10:35:10;3.42;;;0.90;;
70297;SDS011;57702;44.420;20.298;2022-07-06T10:37:36;2.78;;;1.08;;
70297;SDS011;57702;44.420;20.298;2022-07-06T10:40:03;3.90;;;1.10;;
70297;SDS011;57702;44.420;20.298;2022-07-06T10:42:49;3.22;;;1.50;;
70297;SDS011;57702;44.420;20.298;2022-07-06T10:45:20;6.55;;;1.40;;
70297;SDS011;57702;44.420;20.298;2022-07-06T10:50:45;1.95;;;1.20;;
70297;SDS011;57702;44.420;20.298;2022-07-06T10:53:16;2.88;;;1.00;;
70297;SDS011;57702;44.420;20.298;2022-07-06T10:55:44;1.37;;;1.23;;
70297;SDS011;57702;44.420;20.298;2022-07-06T10:58:12;1.98;;;1.45;;
70297;SDS011;57702;44.420;20.298;2022-07-06T11:06:10;4.22;;;1.45;;
70297;SDS011;57702;44.420;20.298;2022-07-06T11:16:29;6.47;;;2.28;;
70297;SDS011;57702;44.420;20.298;2022-07-06T11:19:03;5.25;;;1.15;;
70297;SDS011;57702;44.420;20.298;2022-07-06T11:21:37;6.35;;;1.70;;
70297;SDS011;57702;44.420;20.298;2022-07-06T11:24:04;4.18;;;1.58;;
70297;SDS011;57702;44.420;20.298;2022-07-06T11:26:30;2.65;;;1.25;;
70297;SDS011;57702;44.420;20.298;2022-07-06T11:28:58;2.90;;;1.30;;
70297;SDS011;57702;44.420;20.298;2022-07-06T11:31:25;4.15;;;1.73;;
70297;SDS011;57702;44.420;20.298;2022-07-06T11:33:52;3.53;;;1.20;;
70297;SDS011;57702;44.420;20.298;2022-07-06T11:36:19;7.25;;;1.63;;
70297;SDS011;57702;44.420;20.298;2022-07-06T11:38:46;13.90;;;2.10;;
70297;SDS011;57702;44.420;20.298;2022-07-06T11:41:14;17.58;;;2.03;;
70297;SDS011;57702;44.420;20.298;2022-07-06T11:43:42;11.43;;;1.50;;
70297;SDS011;57702;44.420;20.298;2022-07-06T11:48:46;1.55;;;1.15;;
70297;SDS011;57702;44.420;20.298;2022-07-06T11:51:12;1.38;;;1.25;;
70297;SDS011;57702;44.420;20.298;2022-07-06T11:53:46;3.70;;;1.95;;
70297;SDS011;57702;44.420;20.298;2022-07-06T11:56:13;5.95;;;1.58;;
70297;SDS011;57702;44.420;20.298;2022-07-06T11:58:40;9.60;;;1.48;;
70297;SDS011;57702;44.420;20.298;2022-07-06T12:01:10;6.82;;;1.60;;
70297;SDS011;57702;44.420;20.298;2022-07-06T12:03:37;6.13;;;2.28;;
70297;SDS011;57702;44.420;20.298;2022-07-06T12:06:03;6.68;;;1.45;;
70297;SDS011;57702;44.420;20.298;2022-07-06T12:08:30;14.60;;;1.30;;
70297;SDS011;57702;44.420;20.298;2022-07-06T12:11:00;8.05;;;1.65;;
70297;SDS011;57702;44.420;20.298;2022-07-06T12:13:26;5.38;;;1.20;;
70297;SDS011;57702;44.420;20.298;2022-07-06T12:15:52;1.80;;;1.40;;
70297;SDS011;57702;44.420;20.298;2022-07-06T12:18:19;7.68;;;1.88;;
70297;SDS011;57702;44.420;20.298;2022-07-06T12:20:45;4.63;;;1.70;;
70297;SDS011;57702;44.420;20.298;2022-07-06T12:23:11;3.13;;;1.90;;
70297;SDS011;57702;44.420;20.298;2022-07-06T12:25:37;4.65;;;2.28;;
70297;SDS011;57702;44.420;20.298;2022-07-06T12:28:04;5.32;;;2.42;;
70297;SDS011;57702;44.420;20.298;2022-07-06T12:30:30;9.40;;;1.55;;
70297;SDS011;57702;44.420;20.298;2022-07-06T12:33:15;6.75;;;1.85;;
70297;SDS011;57702;44.420;20.298;2022-07-06T12:35:44;3.53;;;1.60;;
70297;SDS011;57702;44.420;20.298;2022-07-06T12:38:10;2.70;;;1.17;;
70297;SDS011;57702;44.420;20.298;2022-07-06T12:40:37;15.20;;;1.63;;
70297;SDS011;57702;44.420;20.298;2022-07-06T12:43:04;3.33;;;1.35;;
70297;SDS011;57702;44.420;20.298;2022-07-06T12:45:30;4.85;;;1.33;;
70297;SDS011;57702;44.420;20.298;2022-07-06T12:48:00;4.18;;;1.50;;
70297;SDS011;57702;44.420;20.298;2022-07-06T12:50:34;3.92;;;1.85;;
70297;SDS011;57702;44.420;20.298;2022-07-06T12:53:00;12.07;;;1.98;;
70297;SDS011;57702;44.420;20.298;2022-07-06T12:55:28;3.65;;;1.60;;
70297;SDS011;57702;44.420;20.298;2022-07-06T12:57:55;3.08;;;1.80;;
70297;SDS011;57702;44.420;20.298;2022-07-06T13:00:22;7.55;;;1.60;;
70297;SDS011;57702;44.420;20.298;2022-07-06T13:02:49;3.33;;;1.33;;
70297;SDS011;57702;44.420;20.298;2022-07-06T13:05:21;3.55;;;1.30;;
70297;SDS011;57702;44.420;20.298;2022-07-06T13:07:55;2.75;;;1.48;;
70297;SDS011;57702;44.420;20.298;2022-07-06T13:10:21;2.50;;;1.60;;
70297;SDS011;57702;44.420;20.298;2022-07-06T13:12:48;8.80;;;1.95;;
70297;SDS011;57702;44.420;20.298;2022-07-06T13:15:15;4.50;;;1.58;;
70297;SDS011;57702;44.420;20.298;2022-07-06T13:17:41;5.95;;;1.40;;
70297;SDS011;57702;44.420;20.298;2022-07-06T13:20:09;6.60;;;1.80;;
70297;SDS011;57702;44.420;20.298;2022-07-06T13:22:36;6.32;;;2.15;;
70297;SDS011;57702;44.420;20.298;2022-07-06T13:25:04;7.20;;;1.70;;
70297;SDS011;57702;44.420;20.298;2022-07-06T13:27:30;7.57;;;1.70;;
70297;SDS011;57702;44.420;20.298;2022-07-06T13:29:56;7.20;;;1.70;;
70297;SDS011;57702;44.420;20.298;2022-07-06T13:32:23;8.88;;;1.73;;
70297;SDS011;57702;44.420;20.298;2022-07-06T13:34:49;5.35;;;1.67;;
70297;SDS011;57702;44.420;20.298;2022-07-06T13:37:15;7.70;;;1.75;;
70297;SDS011;57702;44.420;20.298;2022-07-06T13:39:41;3.08;;;1.65;;
70297;SDS011;57702;44.420;20.298;2022-07-06T13:42:07;11.02;;;1.98;;
70297;SDS011;57702;44.420;20.298;2022-07-06T13:44:34;3.97;;;2.33;;
70297;SDS011;57702;44.420;20.298;2022-07-06T13:47:00;3.47;;;1.50;;
70297;SDS011;57702;44.420;20.298;2022-07-06T13:49:26;5.50;;;1.50;;
70297;SDS011;57702;44.420;20.298;2022-07-06T13:51:52;4.95;;;1.30;;
70297;SDS011;57702;44.420;20.298;2022-07-06T13:54:20;11.73;;;2.22;;
70297;SDS011;57702;44.420;20.298;2022-07-06T13:56:46;4.13;;;1.65;;
70297;SDS011;57702;44.420;20.298;2022-07-06T13:59:12;6.85;;;1.30;;
70297;SDS011;57702;44.420;20.298;2022-07-06T14:01:38;3.75;;;1.10;;
70297;SDS011;57702;44.420;20.298;2022-07-06T14:04:04;7.75;;;1.52;;
70297;SDS011;57702;44.420;20.298;2022-07-06T14:06:31;5.03;;;1.73;;
70297;SDS011;57702;44.420;20.298;2022-07-06T14:08:57;5.43;;;1.50;;
70297;SDS011;57702;44.420;20.298;2022-07-06T14:11:23;4.85;;;1.30;;
70297;SDS011;57702;44.420;20.298;2022-07-06T14:13:49;7.22;;;1.30;;
70297;SDS011;57702;44.420;20.298;2022-07-06T14:16:15;1.35;;;1.25;;
70297;SDS011;57702;44.420;20.298;2022-07-06T14:18:42;4.53;;;1.23;;
70297;SDS011;57702;44.420;20.298;2022-07-06T14:21:08;11.50;;;1.92;;
70297;SDS011;57702;44.420;20.298;2022-07-06T14:23:34;7.85;;;1.92;;
70297;SDS011;57702;44.420;20.298;2022-07-06T14:26:00;8.13;;;1.58;;
70297;SDS011;57702;44.420;20.298;2022-07-06T14:28:27;6.47;;;1.60;;
70297;SDS011;57702;44.420;20.298;2022-07-06T14:30:53;8.00;;;1.70;;
70297;SDS011;57702;44.420;20.298;2022-07-06T14:33:19;7.68;;;1.63;;
70297;SDS011;57702;44.420;20.298;2022-07-06T14:35:46;4.40;;;1.50;;
70297;SDS011;57702;44.420;20.298;2022-07-06T14:38:14;2.55;;;1.90;;
70297;SDS011;57702;44.420;20.298;2022-07-06T14:40:40;11.63;;;2.38;;
70297;SDS011;57702;44.420;20.298;2022-07-06T14:43:06;4.13;;;1.55;;
70297;SDS011;57702;44.420;20.298;2022-07-06T14:45:32;8.48;;;1.83;;
70297;SDS011;57702;44.420;20.298;2022-07-06T14:47:59;4.25;;;1.73;;